sensor_id;sensor_type;location;lat;lon;timestamp;pressure;altitude;pressure_sealevel;temperature;humidity
46303;BME280;32029;51.358;5.628;2023-07-08T00:01:19;101364.75;;;22.88;53.95
46303;BME280;32029;51.358;5.628;2023-07-08T00:03:46;101361.13;;;22.88;54.41
46303;BME280;32029;51.358;5.628;2023-07-08T00:06:17;101365.81;;;22.82;54.38
46303;BME280;32029;51.358;5.628;2023-07-08T00:08:44;101360.38;;;22.75;54.73
46303;BME280;32029;51.358;5.628;2023-07-08T00:11:13;101350.13;;;22.64;55.09
46303;BME280;32029;51.358;5.628;2023-07-08T00:13:40;101342.50;;;22.60;55.54
46303;BME280;32029;51.358;5.628;2023-07-08T00:16:16;101349.78;;;22.61;55.54
46303;BME280;32029;51.358;5.628;2023-07-08T00:18:45;101352.50;;;22.56;55.70
46303;BME280;32029;51.358;5.628;2023-07-08T00:21:15;101347.91;;;22.49;55.51
46303;BME280;32029;51.358;5.628;2023-07-08T00:23:49;101338.28;;;22.40;55.69
46303;BME280;32029;51.358;5.628;2023-07-08T00:26:23;101343.59;;;22.42;55.72
46303;BME280;32029;51.358;5.628;2023-07-08T00:28:51;101317.84;;;22.23;55.87
46303;BME280;32029;51.358;5.628;2023-07-08T00:31:18;101325.13;;;22.24;55.71
46303;BME280;32029;51.358;5.628;2023-07-08T00:33:50;101306.63;;;22.06;56.20
46303;BME280;32029;51.358;5.628;2023-07-08T00:36:17;101331.81;;;22.23;56.32
46303;BME280;32029;51.358;5.628;2023-07-08T00:38:43;101326.03;;;22.13;56.59
46303;BME280;32029;51.358;5.628;2023-07-08T00:41:37;101343.16;;;22.16;56.62
46303;BME280;32029;51.358;5.628;2023-07-08T00:44:11;101336.34;;;22.12;57.04
46303;BME280;32029;51.358;5.628;2023-07-08T00:47:00;101326.53;;;22.10;56.65
46303;BME280;32029;51.358;5.628;2023-07-08T00:52:27;101332.25;;;22.03;57.12
46303;BME280;32029;51.358;5.628;2023-07-08T00:54:58;101329.03;;;21.94;57.20
46303;BME280;32029;51.358;5.628;2023-07-08T00:57:28;101329.03;;;21.94;57.16
46303;BME280;32029;51.358;5.628;2023-07-08T01:00:05;101333.28;;;21.97;57.19
46303;BME280;32029;51.358;5.628;2023-07-08T01:02:40;101305.81;;;21.77;57.17
46303;BME280;32029;51.358;5.628;2023-07-08T01:05:28;101322.75;;;21.87;57.11
46303;BME280;32029;51.358;5.628;2023-07-08T01:07:59;101292.25;;;21.69;57.07
46303;BME280;32029;51.358;5.628;2023-07-08T01:10:35;101325.31;;;21.89;57.48
46303;BME280;32029;51.358;5.628;2023-07-08T01:13:05;101304.09;;;21.76;57.40
46303;BME280;32029;51.358;5.628;2023-07-08T01:15:41;101315.13;;;21.83;57.58
46303;BME280;32029;51.358;5.628;2023-07-08T01:18:09;101315.03;;;21.77;57.16
46303;BME280;32029;51.358;5.628;2023-07-08T01:20:39;101324.59;;;21.82;57.79
46303;BME280;32029;51.358;5.628;2023-07-08T01:23:05;101312.69;;;21.86;57.70
46303;BME280;32029;51.358;5.628;2023-07-08T01:25:33;101318.53;;;21.85;57.78
46303;BME280;32029;51.358;5.628;2023-07-08T01:28:00;101323.94;;;21.91;57.38
46303;BME280;32029;51.358;5.628;2023-07-08T01:30:28;101327.34;;;21.93;57.29
46303;BME280;32029;51.358;5.628;2023-07-08T01:32:59;101319.25;;;21.80;57.46
46303;BME280;32029;51.358;5.628;2023-07-08T01:35:28;101296.81;;;21.75;57.75
46303;BME280;32029;51.358;5.628;2023-07-08T01:37:59;101325.88;;;21.91;57.39
46303;BME280;32029;51.358;5.628;2023-07-08T01:40:32;101324.78;;;21.92;57.73
46303;BME280;32029;51.358;5.628;2023-07-08T01:43:00;101311.56;;;21.87;57.80
46303;BME280;32029;51.358;5.628;2023-07-08T01:45:30;101301.78;;;21.85;57.77
46303;BME280;32029;51.358;5.628;2023-07-08T01:48:03;101304.78;;;21.83;57.90
46303;BME280;32029;51.358;5.628;2023-07-08T01:50:31;101301.16;;;21.83;57.43
46303;BME280;32029;51.358;5.628;2023-07-08T01:53:00;101297.25;;;21.84;57.79
46303;BME280;32029;51.358;5.628;2023-07-08T01:55:29;101289.63;;;21.79;57.67
46303;BME280;32029;51.358;5.628;2023-07-08T01:57:56;101301.78;;;21.85;58.06
46303;BME280;32029;51.358;5.628;2023-07-08T02:00:24;101296.34;;;21.78;57.75
46303;BME280;32029;51.358;5.628;2023-07-08T02:02:51;101295.84;;;21.81;58.29
46303;BME280;32029;51.358;5.628;2023-07-08T02:05:18;101292.44;;;21.79;58.17
46303;BME280;32029;51.358;5.628;2023-07-08T02:07:44;101267.84;;;21.64;58.45
46303;BME280;32029;51.358;5.628;2023-07-08T02:10:11;101275.50;;;21.69;58.05
46303;BME280;32029;51.358;5.628;2023-07-08T02:12:38;101284.81;;;21.74;58.43
46303;BME280;32029;51.358;5.628;2023-07-08T02:15:05;101276.00;;;21.66;58.28
46303;BME280;32029;51.358;5.628;2023-07-08T02:17:32;101246.94;;;21.50;58.69
46303;BME280;32029;51.358;5.628;2023-07-08T02:19:59;101267.84;;;21.64;58.74
46303;BME280;32029;51.358;5.628;2023-07-08T02:22:26;101266.06;;;21.58;58.46
46303;BME280;32029;51.358;5.628;2023-07-08T02:24:52;101276.00;;;21.66;58.45
46303;BME280;32029;51.358;5.628;2023-07-08T02:27:19;101277.34;;;21.63;58.76
46303;BME280;32029;51.358;5.628;2023-07-08T02:29:46;101262.31;;;21.52;59.28
46303;BME280;32029;51.358;5.628;2023-07-08T02:32:12;101260.06;;;21.49;59.43
46303;BME280;32029;51.358;5.628;2023-07-08T02:34:39;101243.22;;;21.33;59.41
46303;BME280;32029;51.358;5.628;2023-07-08T02:37:06;101263.56;;;21.45;59.72
46303;BME280;32029;51.358;5.628;2023-07-08T02:39:33;101264.31;;;21.40;59.44
46303;BME280;32029;51.358;5.628;2023-07-08T02:41:59;101272.59;;;21.35;59.79
46303;BME280;32029;51.358;5.628;2023-07-08T02:44:27;101268.56;;;21.31;59.70
46303;BME280;32029;51.358;5.628;2023-07-08T02:46:54;101259.41;;;21.19;60.11
46303;BME280;32029;51.358;5.628;2023-07-08T02:49:20;101272.75;;;21.17;59.87
46303;BME280;32029;51.358;5.628;2023-07-08T02:51:47;101257.84;;;21.11;60.56
46303;BME280;32029;51.358;5.628;2023-07-08T02:54:14;101236.16;;;20.90;60.55
46303;BME280;32029;51.358;5.628;2023-07-08T02:56:40;101269.84;;;21.12;60.93
46303;BME280;32029;51.358;5.628;2023-07-08T02:59:07;101258.94;;;20.98;60.80
46303;BME280;32029;51.358;5.628;2023-07-08T03:01:34;101268.19;;;20.99;60.89
46303;BME280;32029;51.358;5.628;2023-07-08T03:04:09;101271.81;;;20.99;61.28
46303;BME280;32029;51.358;5.628;2023-07-08T03:06:40;101274.16;;;20.91;61.64
46303;BME280;32029;51.358;5.628;2023-07-08T03:09:08;101283.94;;;20.93;61.22
46303;BME280;32029;51.358;5.628;2023-07-08T03:11:35;101278.84;;;20.90;62.00
46303;BME280;32029;51.358;5.628;2023-07-08T03:14:02;101280.44;;;20.86;61.64
46303;BME280;32029;51.358;5.628;2023-07-08T03:16:30;101269.66;;;20.78;62.34
46303;BME280;32029;51.358;5.628;2023-07-08T03:18:57;101263.00;;;20.67;62.58
46303;BME280;32029;51.358;5.628;2023-07-08T03:21:23;101253.69;;;20.62;62.89
46303;BME280;32029;51.358;5.628;2023-07-08T03:23:51;101283.50;;;20.73;63.14
46303;BME280;32029;51.358;5.628;2023-07-08T03:26:23;101275.50;;;20.65;63.43
46303;BME280;32029;51.358;5.628;2023-07-08T03:28:51;101277.31;;;20.59;63.35
46303;BME280;32029;51.358;5.628;2023-07-08T03:31:18;101300.34;;;20.66;63.87
46303;BME280;32029;51.358;5.628;2023-07-08T03:33:44;101296.13;;;20.64;63.69
46303;BME280;32029;51.358;5.628;2023-07-08T03:36:16;101263.84;;;20.44;63.21
46303;BME280;32029;51.358;5.628;2023-07-08T03:38:57;101285.94;;;20.58;63.42
46303;BME280;32029;51.358;5.628;2023-07-08T03:41:24;101257.53;;;20.37;63.20
46303;BME280;32029;51.358;5.628;2023-07-08T03:43:50;101294.19;;;20.52;63.29
46303;BME280;32029;51.358;5.628;2023-07-08T03:46:19;101268.69;;;20.37;63.36
46303;BME280;32029;51.358;5.628;2023-07-08T03:48:47;101275.94;;;20.38;63.12
46303;BME280;32029;51.358;5.628;2023-07-08T03:51:21;101286.63;;;20.41;63.51
46303;BME280;32029;51.358;5.628;2023-07-08T03:53:50;101279.84;;;20.37;63.05
46303;BME280;32029;51.358;5.628;2023-07-08T03:56:17;101267.09;;;20.29;63.24
46303;BME280;32029;51.358;5.628;2023-07-08T03:58:44;101293.78;;;20.37;63.06
46303;BME280;32029;51.358;5.628;2023-07-08T04:01:19;101304.09;;;20.48;62.99
46303;BME280;32029;51.358;5.628;2023-07-08T04:03:51;101288.06;;;20.32;63.26
46303;BME280;32029;51.358;5.628;2023-07-08T04:06:19;101309.66;;;20.48;63.72
46303;BME280;32029;51.358;5.628;2023-07-08T04:08:46;101313.91;;;20.51;64.02
46303;BME280;32029;51.358;5.628;2023-07-08T04:11:21;101279.84;;;20.37;64.11
46303;BME280;32029;51.358;5.628;2023-07-08T04:13:49;101273.78;;;20.40;64.23
46303;BME280;32029;51.358;5.628;2023-07-08T04:16:22;101262.97;;;20.44;64.02
46303;BME280;32029;51.358;5.628;2023-07-08T04:18:50;101275.13;;;20.49;64.47
46303;BME280;32029;51.358;5.628;2023-07-08T04:21:20;101303.28;;;20.71;64.14
46303;BME280;32029;51.358;5.628;2023-07-08T04:23:46;101286.41;;;20.66;64.41
46303;BME280;32029;51.358;5.628;2023-07-08T04:26:13;101315.13;;;20.78;64.26
46303;BME280;32029;51.358;5.628;2023-07-08T04:28:42;101270.78;;;20.53;64.35
46303;BME280;32029;51.358;5.628;2023-07-08T04:31:08;101289.56;;;20.70;64.22
46303;BME280;32029;51.358;5.628;2023-07-08T04:33:35;101305.78;;;20.85;64.27
46303;BME280;32029;51.358;5.628;2023-07-08T04:36:02;101290.28;;;20.77;64.57
46303;BME280;32029;51.358;5.628;2023-07-08T04:38:29;101310.88;;;20.88;64.36
46303;BME280;32029;51.358;5.628;2023-07-08T04:40:56;101301.16;;;20.90;64.27
46303;BME280;32029;51.358;5.628;2023-07-08T04:43:23;101254.28;;;20.75;63.71
46303;BME280;32029;51.358;5.628;2023-07-08T04:45:57;101293.78;;;20.96;63.71
46303;BME280;32029;51.358;5.628;2023-07-08T04:48:23;101272.59;;;20.83;63.89
46303;BME280;32029;51.358;5.628;2023-07-08T04:50:52;101279.72;;;20.91;63.50
46303;BME280;32029;51.358;5.628;2023-07-08T04:53:19;101304.56;;;21.04;63.76
46303;BME280;32029;51.358;5.628;2023-07-08T04:55:54;101283.94;;;20.93;63.34
46303;BME280;32029;51.358;5.628;2023-07-08T04:58:22;101315.81;;;21.09;63.67
46303;BME280;32029;51.358;5.628;2023-07-08T05:00:49;101316.19;;;21.13;63.48
46303;BME280;32029;51.358;5.628;2023-07-08T05:03:15;101289.41;;;21.00;63.35
46303;BME280;32029;51.358;5.628;2023-07-08T05:05:42;101308.53;;;21.20;63.40
46303;BME280;32029;51.358;5.628;2023-07-08T05:08:09;101303.53;;;21.22;63.43
46303;BME280;32029;51.358;5.628;2023-07-08T05:10:36;101248.31;;;20.95;63.27
46303;BME280;32029;51.358;5.628;2023-07-08T05:13:03;101270.06;;;21.10;63.46
46303;BME280;32029;51.358;5.628;2023-07-08T05:15:29;101288.50;;;21.23;63.38
46303;BME280;32029;51.358;5.628;2023-07-08T05:17:58;101259.66;;;21.05;63.53
46303;BME280;32029;51.358;5.628;2023-07-08T05:20:24;101303.75;;;21.32;63.12
46303;BME280;32029;51.358;5.628;2023-07-08T05:22:51;101301.63;;;21.34;63.13
46303;BME280;32029;51.358;5.628;2023-07-08T05:25:18;101280.63;;;21.20;63.39
46303;BME280;32029;51.358;5.628;2023-07-08T05:27:47;101305.00;;;21.36;63.21
46303;BME280;32029;51.358;5.628;2023-07-08T05:30:16;101290.81;;;21.26;63.46
46303;BME280;32029;51.358;5.628;2023-07-08T05:32:44;101291.28;;;21.35;62.90
46303;BME280;32029;51.358;5.628;2023-07-08T05:35:11;101279.63;;;21.38;63.21
46303;BME280;32029;51.358;5.628;2023-07-08T05:37:38;101273.69;;;21.34;63.06
46303;BME280;32029;51.358;5.628;2023-07-08T05:40:07;101299.72;;;21.51;63.36
46303;BME280;32029;51.358;5.628;2023-07-08T05:42:34;101282.13;;;21.51;63.88
46303;BME280;32029;51.358;5.628;2023-07-08T05:45:01;101300.50;;;21.64;63.59
46303;BME280;32029;51.358;5.628;2023-07-08T05:47:28;101306.31;;;21.74;64.17
46303;BME280;32029;51.358;5.628;2023-07-08T05:49:55;101297.66;;;21.75;63.62
46303;BME280;32029;51.358;5.628;2023-07-08T05:52:21;101264.81;;;21.66;63.35
46303;BME280;32029;51.358;5.628;2023-07-08T05:54:48;101291.88;;;21.94;63.60
46303;BME280;32029;51.358;5.628;2023-07-08T05:57:15;101272.38;;;21.82;63.81
46303;BME280;32029;51.358;5.628;2023-07-08T05:59:41;101295.16;;;22.08;63.24
46303;BME280;32029;51.358;5.628;2023-07-08T06:02:11;101297.84;;;22.14;63.02
46303;BME280;32029;51.358;5.628;2023-07-08T06:04:39;101304.38;;;22.20;62.74
46303;BME280;32029;51.358;5.628;2023-07-08T06:07:05;101314.53;;;22.26;62.73
46303;BME280;32029;51.358;5.628;2023-07-08T06:09:33;101303.84;;;22.23;62.93
46303;BME280;32029;51.358;5.628;2023-07-08T06:11:59;101309.28;;;22.30;62.80
46303;BME280;32029;51.358;5.628;2023-07-08T06:14:27;101315.63;;;22.42;62.80
46303;BME280;32029;51.358;5.628;2023-07-08T06:16:54;101317.44;;;22.48;62.50
46303;BME280;32029;51.358;5.628;2023-07-08T06:19:22;101303.09;;;22.44;62.33
46303;BME280;32029;51.358;5.628;2023-07-08T06:21:49;101308.94;;;22.60;62.31
46303;BME280;32029;51.358;5.628;2023-07-08T06:24:16;101305.88;;;22.61;62.04
46303;BME280;32029;51.358;5.628;2023-07-08T06:26:43;101274.97;;;22.51;61.67
46303;BME280;32029;51.358;5.628;2023-07-08T06:29:10;101316.28;;;22.83;61.91
46303;BME280;32029;51.358;5.628;2023-07-08T06:31:37;101315.00;;;22.90;61.72
46303;BME280;32029;51.358;5.628;2023-07-08T06:34:03;101312.63;;;22.99;61.47
46303;BME280;32029;51.358;5.628;2023-07-08T06:36:30;101315.25;;;23.06;60.95
46303;BME280;32029;51.358;5.628;2023-07-08T06:38:57;101311.91;;;23.09;60.66
46303;BME280;32029;51.358;5.628;2023-07-08T06:41:24;101256.44;;;22.84;60.80
46303;BME280;32029;51.358;5.628;2023-07-08T06:43:51;101325.09;;;23.30;60.52
46303;BME280;32029;51.358;5.628;2023-07-08T06:46:17;101325.75;;;23.37;59.85
46303;BME280;32029;51.358;5.628;2023-07-08T06:48:45;101295.41;;;23.29;59.64
46303;BME280;32029;51.358;5.628;2023-07-08T06:51:12;101284.28;;;23.34;59.54
46303;BME280;32029;51.358;5.628;2023-07-08T06:53:38;101293.97;;;23.48;59.28
46303;BME280;32029;51.358;5.628;2023-07-08T06:56:05;101320.56;;;23.68;59.21
46303;BME280;32029;51.358;5.628;2023-07-08T06:58:33;101306.06;;;23.76;59.46
46303;BME280;32029;51.358;5.628;2023-07-08T07:01:00;101295.72;;;23.77;58.87
46303;BME280;32029;51.358;5.628;2023-07-08T07:03:26;101294.63;;;23.83;59.24
46303;BME280;32029;51.358;5.628;2023-07-08T07:05:53;101310.75;;;23.98;58.76
46303;BME280;32029;51.358;5.628;2023-07-08T07:08:20;101300.16;;;24.00;59.41
46303;BME280;32029;51.358;5.628;2023-07-08T07:10:46;101279.38;;;23.95;59.17
46303;BME280;32029;51.358;5.628;2023-07-08T07:13:13;101306.47;;;24.17;59.26
46303;BME280;32029;51.358;5.628;2023-07-08T07:15:40;101284.50;;;24.04;59.44
46303;BME280;32029;51.358;5.628;2023-07-08T07:18:08;101287.97;;;24.16;59.34
46303;BME280;32029;51.358;5.628;2023-07-08T07:20:37;101305.47;;;24.33;58.59
46303;BME280;32029;51.358;5.628;2023-07-08T07:23:03;101290.38;;;24.34;59.00
46303;BME280;32029;51.358;5.628;2023-07-08T07:25:30;101306.78;;;24.53;58.99
46303;BME280;32029;51.358;5.628;2023-07-08T07:27:57;101308.25;;;24.60;58.91
46303;BME280;32029;51.358;5.628;2023-07-08T07:30:26;101302.09;;;24.63;58.91
46303;BME280;32029;51.358;5.628;2023-07-08T07:32:53;101307.50;;;24.75;58.08
46303;BME280;32029;51.358;5.628;2023-07-08T07:35:19;101307.00;;;24.83;57.20
46303;BME280;32029;51.358;5.628;2023-07-08T07:37:46;101301.97;;;24.85;56.89
46303;BME280;32029;51.358;5.628;2023-07-08T07:40:13;101321.97;;;24.99;56.66
46303;BME280;32029;51.358;5.628;2023-07-08T07:42:43;101322.56;;;25.06;56.98
46303;BME280;32029;51.358;5.628;2023-07-08T07:45:10;101324.91;;;25.14;56.99
46303;BME280;32029;51.358;5.628;2023-07-08T07:47:37;101328.03;;;25.23;56.54
46303;BME280;32029;51.358;5.628;2023-07-08T07:50:06;101315.69;;;25.24;56.22
46303;BME280;32029;51.358;5.628;2023-07-08T07:52:33;101325.03;;;25.40;55.42
46303;BME280;32029;51.358;5.628;2023-07-08T07:54:59;101316.31;;;25.47;55.14
46303;BME280;32029;51.358;5.628;2023-07-08T07:57:26;101293.31;;;25.45;55.09
46303;BME280;32029;51.358;5.628;2023-07-08T07:59:53;101289.13;;;25.52;54.54
46303;BME280;32029;51.358;5.628;2023-07-08T08:02:20;101306.56;;;25.70;54.61
46303;BME280;32029;51.358;5.628;2023-07-08T08:04:46;101306.31;;;25.76;53.86
46303;BME280;32029;51.358;5.628;2023-07-08T08:07:14;101288.88;;;25.74;53.33
46303;BME280;32029;51.358;5.628;2023-07-08T08:09:41;101313.44;;;25.94;53.52
46303;BME280;32029;51.358;5.628;2023-07-08T08:12:09;101311.44;;;26.00;53.98
46303;BME280;32029;51.358;5.628;2023-07-08T08:14:37;101260.84;;;25.79;53.40
46303;BME280;32029;51.358;5.628;2023-07-08T08:17:04;101309.22;;;26.17;52.46
46303;BME280;32029;51.358;5.628;2023-07-08T08:19:31;101305.88;;;26.25;52.51
46303;BME280;32029;51.358;5.628;2023-07-08T08:21:58;101298.81;;;26.28;52.91
46303;BME280;32029;51.358;5.628;2023-07-08T08:24:25;101315.41;;;26.39;52.63
46303;BME280;32029;51.358;5.628;2023-07-08T08:26:52;101327.25;;;26.47;52.39
46303;BME280;32029;51.358;5.628;2023-07-08T08:29:18;101326.69;;;26.55;52.69
46303;BME280;32029;51.358;5.628;2023-07-08T08:31:45;101325.56;;;26.61;52.97
46303;BME280;32029;51.358;5.628;2023-07-08T08:34:13;101327.25;;;26.67;52.86
46303;BME280;32029;51.358;5.628;2023-07-08T08:36:41;101325.56;;;26.76;53.02
46303;BME280;32029;51.358;5.628;2023-07-08T08:39:10;101323.28;;;26.83;53.11
46303;BME280;32029;51.358;5.628;2023-07-08T08:41:38;101308.38;;;26.78;52.29
46303;BME280;32029;51.358;5.628;2023-07-08T08:44:14;101303.31;;;26.80;51.68
46303;BME280;32029;51.358;5.628;2023-07-08T08:46:52;101338.44;;;27.08;51.37
46303;BME280;32029;51.358;5.628;2023-07-08T08:49:29;101335.34;;;27.15;51.25
46303;BME280;32029;51.358;5.628;2023-07-08T08:52:03;101346.88;;;27.23;51.49
46303;BME280;32029;51.358;5.628;2023-07-08T08:54:30;101344.56;;;27.30;50.71
46303;BME280;32029;51.358;5.628;2023-07-08T08:57:25;101341.19;;;27.39;50.87
46303;BME280;32029;51.358;5.628;2023-07-08T08:59:55;101344.53;;;27.46;51.44
46303;BME280;32029;51.358;5.628;2023-07-08T09:05:08;101354.63;;;27.62;51.10
46303;BME280;32029;51.358;5.628;2023-07-08T09:07:59;101339.91;;;27.70;50.75
46303;BME280;32029;51.358;5.628;2023-07-08T09:10:33;101334.84;;;27.77;50.95
46303;BME280;32029;51.358;5.628;2023-07-08T09:13:04;101337.88;;;27.86;50.09
46303;BME280;32029;51.358;5.628;2023-07-08T09:15:32;101329.09;;;27.93;50.17
46303;BME280;32029;51.358;5.628;2023-07-08T09:18:12;101318.06;;;27.96;49.98
46303;BME280;32029;51.358;5.628;2023-07-08T09:20:41;101327.31;;;28.07;49.90
46303;BME280;32029;51.358;5.628;2023-07-08T09:23:22;101322.19;;;28.14;50.09
46303;BME280;32029;51.358;5.628;2023-07-08T09:25:59;101323.53;;;28.22;49.49
46303;BME280;32029;51.358;5.628;2023-07-08T09:28:37;101317.56;;;28.28;49.73
46303;BME280;32029;51.358;5.628;2023-07-08T09:31:06;101301.81;;;28.22;49.23
46303;BME280;32029;51.358;5.628;2023-07-08T09:33:36;101321.41;;;28.43;48.77
46303;BME280;32029;51.358;5.628;2023-07-08T09:36:17;101307.28;;;28.48;47.42
46303;BME280;32029;51.358;5.628;2023-07-08T09:38:49;101310.00;;;28.58;47.64
46303;BME280;32029;51.358;5.628;2023-07-08T09:41:35;101297.88;;;28.57;46.98
46303;BME280;32029;51.358;5.628;2023-07-08T09:44:19;101318.31;;;28.73;46.77
46303;BME280;32029;51.358;5.628;2023-07-08T09:46:49;101294.13;;;28.67;44.90
46303;BME280;32029;51.358;5.628;2023-07-08T09:49:22;101304.13;;;28.78;44.63
46303;BME280;32029;51.358;5.628;2023-07-08T09:51:51;101293.94;;;28.82;43.94
46303;BME280;32029;51.358;5.628;2023-07-08T09:54:20;101312.13;;;29.00;44.32
46303;BME280;32029;51.358;5.628;2023-07-08T09:57:12;101315.44;;;29.08;43.77
46303;BME280;32029;51.358;5.628;2023-07-08T09:59:51;101311.19;;;29.10;44.38
46303;BME280;32029;51.358;5.628;2023-07-08T10:05:32;101320.56;;;29.29;44.17
46303;BME280;32029;51.358;5.628;2023-07-08T10:08:00;101308.09;;;29.30;43.94
46303;BME280;32029;51.358;5.628;2023-07-08T10:10:35;101318.97;;;29.42;43.93
46303;BME280;32029;51.358;5.628;2023-07-08T10:13:16;101297.81;;;29.40;43.30
46303;BME280;32029;51.358;5.628;2023-07-08T10:15:55;101315.16;;;29.57;43.57
46303;BME280;32029;51.358;5.628;2023-07-08T10:18:28;101319.56;;;29.63;42.38
46303;BME280;32029;51.358;5.628;2023-07-08T10:21:31;101307.06;;;29.69;42.59
46303;BME280;32029;51.358;5.628;2023-07-08T10:27:08;101306.28;;;29.83;43.40
46303;BME280;32029;51.358;5.628;2023-07-08T10:35:28;101311.19;;;29.96;45.39
46303;BME280;32029;51.358;5.628;2023-07-08T10:38:37;101327.63;;;30.13;45.34
46303;BME280;32029;51.358;5.628;2023-07-08T10:40:58;101315.31;;;30.22;44.66
46303;BME280;32029;51.358;5.628;2023-07-08T10:49:30;101324.41;;;30.38;44.29
46303;BME280;32029;51.358;5.628;2023-07-08T10:55:09;101329.50;;;30.55;43.51
46303;BME280;32029;51.358;5.628;2023-07-08T10:58:20;101319.25;;;30.59;42.62
46303;BME280;32029;51.358;5.628;2023-07-08T11:00:59;101316.84;;;30.66;42.86
46303;BME280;32029;51.358;5.628;2023-07-08T11:06:52;101321.63;;;30.85;42.56
46303;BME280;32029;51.358;5.628;2023-07-08T11:09:35;101305.25;;;30.82;41.78
46303;BME280;32029;51.358;5.628;2023-07-08T11:12:20;101317.97;;;30.98;40.83
46303;BME280;32029;51.358;5.628;2023-07-08T11:15:40;101304.94;;;30.97;41.59
46303;BME280;32029;51.358;5.628;2023-07-08T11:18:39;101320.19;;;31.15;41.46
46303;BME280;32029;51.358;5.628;2023-07-08T11:21:21;101302.13;;;31.11;41.29
46303;BME280;32029;51.358;5.628;2023-07-08T11:23:56;101320.50;;;31.27;41.31
46303;BME280;32029;51.358;5.628;2023-07-08T11:26:39;101313.28;;;31.35;40.53
46303;BME280;32029;51.358;5.628;2023-07-08T11:29:18;101311.00;;;31.37;41.15
46303;BME280;32029;51.358;5.628;2023-07-08T11:31:47;101316.63;;;31.51;40.06
46303;BME280;32029;51.358;5.628;2023-07-08T11:34:17;101292.91;;;31.46;40.77
46303;BME280;32029;51.358;5.628;2023-07-08T11:36:46;101304.25;;;31.60;40.75
46303;BME280;32029;51.358;5.628;2023-07-08T11:39:32;101310.72;;;31.75;40.40
46303;BME280;32029;51.358;5.628;2023-07-08T11:42:11;101307.44;;;31.81;40.03
46303;BME280;32029;51.358;5.628;2023-07-08T11:44:44;101300.19;;;31.89;39.45
46303;BME280;32029;51.358;5.628;2023-07-08T11:47:25;101297.78;;;31.96;39.14
46303;BME280;32029;51.358;5.628;2023-07-08T11:49:53;101286.41;;;31.96;39.34
46303;BME280;32029;51.358;5.628;2023-07-08T11:52:22;101294.16;;;32.04;39.50
46303;BME280;32029;51.358;5.628;2023-07-08T11:55:03;101287.72;;;32.12;38.92
46303;BME280;32029;51.358;5.628;2023-07-08T11:57:38;101278.03;;;32.13;37.91
46303;BME280;32029;51.358;5.628;2023-07-08T12:00:16;101290.66;;;32.30;38.97
46303;BME280;32029;51.358;5.628;2023-07-08T12:02:58;101283.84;;;32.31;39.18
46303;BME280;32029;51.358;5.628;2023-07-08T12:05:33;101295.50;;;32.43;37.49
46303;BME280;32029;51.358;5.628;2023-07-08T12:08:02;101270.06;;;32.38;37.71
46303;BME280;32029;51.358;5.628;2023-07-08T12:10:39;101282.06;;;32.57;38.93
46303;BME280;32029;51.358;5.628;2023-07-08T12:13:13;101256.13;;;32.50;38.58
46303;BME280;32029;51.358;5.628;2023-07-08T12:15:41;101233.66;;;32.40;38.79
46303;BME280;32029;51.358;5.628;2023-07-08T12:18:19;101288.00;;;32.78;38.32
46303;BME280;32029;51.358;5.628;2023-07-08T12:20:57;101277.34;;;32.84;37.94
46303;BME280;32029;51.358;5.628;2023-07-08T12:23:26;101278.88;;;32.90;38.52
46303;BME280;32029;51.358;5.628;2023-07-08T12:25:54;101267.31;;;32.86;38.17
46303;BME280;32029;51.358;5.628;2023-07-08T12:28:22;101250.97;;;32.92;38.14
46303;BME280;32029;51.358;5.628;2023-07-08T12:30:50;101252.88;;;32.97;37.58
46303;BME280;32029;51.358;5.628;2023-07-08T12:33:34;101273.00;;;33.17;37.45
46303;BME280;32029;51.358;5.628;2023-07-08T12:36:04;101261.44;;;33.14;36.66
46303;BME280;32029;51.358;5.628;2023-07-08T12:38:35;101252.44;;;33.21;36.58
46303;BME280;32029;51.358;5.628;2023-07-08T12:41:12;101267.34;;;33.35;36.94
46303;BME280;32029;51.358;5.628;2023-07-08T12:43:40;101265.69;;;33.34;37.58
46303;BME280;32029;51.358;5.628;2023-07-08T12:46:10;101269.56;;;33.47;37.74
46303;BME280;32029;51.358;5.628;2023-07-08T12:48:38;101236.59;;;33.37;37.94
46303;BME280;32029;51.358;5.628;2023-07-08T12:51:10;101263.22;;;33.58;37.22
46303;BME280;32029;51.358;5.628;2023-07-08T12:53:37;101248.53;;;33.56;37.34
46303;BME280;32029;51.358;5.628;2023-07-08T12:56:04;101255.88;;;33.66;36.71
46303;BME280;32029;51.358;5.628;2023-07-08T12:58:36;101264.63;;;33.78;36.10
46303;BME280;32029;51.358;5.628;2023-07-08T13:01:05;101254.38;;;33.77;35.43
46303;BME280;32029;51.358;5.628;2023-07-08T13:03:41;101261.59;;;33.92;36.13
46303;BME280;32029;51.358;5.628;2023-07-08T13:06:11;101259.75;;;33.96;36.51
46303;BME280;32029;51.358;5.628;2023-07-08T13:08:39;101248.72;;;33.95;37.21
46303;BME280;32029;51.358;5.628;2023-07-08T13:11:06;101266.31;;;34.14;35.39
46303;BME280;32029;51.358;5.628;2023-07-08T13:13:36;101263.63;;;34.18;35.12
46303;BME280;32029;51.358;5.628;2023-07-08T13:16:05;101272.16;;;34.26;35.08
46303;BME280;32029;51.358;5.628;2023-07-08T13:18:37;101262.09;;;34.29;35.11
46303;BME280;32029;51.358;5.628;2023-07-08T13:21:10;101275.50;;;34.37;34.89
46303;BME280;32029;51.358;5.628;2023-07-08T13:23:38;101242.53;;;34.19;33.63
46303;BME280;32029;51.358;5.628;2023-07-08T13:26:16;101248.34;;;34.31;34.64
46303;BME280;32029;51.358;5.628;2023-07-08T13:28:44;101276.16;;;34.51;34.16
46303;BME280;32029;51.358;5.628;2023-07-08T13:31:22;101248.31;;;34.48;34.53
46303;BME280;32029;51.358;5.628;2023-07-08T13:33:51;101256.06;;;34.56;33.96
46303;BME280;32029;51.358;5.628;2023-07-08T13:36:24;101262.34;;;34.71;33.86
46303;BME280;32029;51.358;5.628;2023-07-08T13:38:51;101246.63;;;34.65;34.12